sensor_id;sensor_type;location;lat;lon;timestamp;temperature;humidity
22895;DHT22;11614;52.494;6.976;2022-08-21T00:44:56;14.90;99.90
22895;DHT22;11614;52.494;6.976;2022-08-21T00:47:22;15.00;99.90
22895;DHT22;11614;52.494;6.976;2022-08-21T00:49:48;14.80;99.90
22895;DHT22;11614;52.494;6.976;2022-08-21T00:52:17;14.80;99.90
22895;DHT22;11614;52.494;6.976;2022-08-21T00:54:44;14.80;99.90
22895;DHT22;11614;52.494;6.976;2022-08-21T00:57:14;14.70;99.90
22895;DHT22;11614;52.494;6.976;2022-08-21T00:59:44;14.70;99.90
22895;DHT22;11614;52.494;6.976;2022-08-21T01:02:11;14.50;99.90
22895;DHT22;11614;52.494;6.976;2022-08-21T01:04:37;14.80;99.90
22895;DHT22;11614;52.494;6.976;2022-08-21T01:07:03;14.60;99.90
22895;DHT22;11614;52.494;6.976;2022-08-21T01:16:50;14.40;99.90
22895;DHT22;11614;52.494;6.976;2022-08-21T01:19:16;14.40;99.90
22895;DHT22;11614;52.494;6.976;2022-08-21T01:21:42;14.40;99.90
22895;DHT22;11614;52.494;6.976;2022-08-21T01:24:08;14.40;99.90
22895;DHT22;11614;52.494;6.976;2022-08-21T01:26:36;14.40;99.90
22895;DHT22;11614;52.494;6.976;2022-08-21T01:31:31;14.60;99.90
22895;DHT22;11614;52.494;6.976;2022-08-21T01:33:59;14.20;99.90
22895;DHT22;11614;52.494;6.976;2022-08-21T01:36:25;14.30;99.90
22895;DHT22;11614;52.494;6.976;2022-08-21T01:38:51;14.60;99.90
22895;DHT22;11614;52.494;6.976;2022-08-21T01:41:17;14.20;99.90
22895;DHT22;11614;52.494;6.976;2022-08-21T01:43:44;14.20;99.90
22895;DHT22;11614;52.494;6.976;2022-08-21T01:46:10;14.00;99.90
22895;DHT22;11614;52.494;6.976;2022-08-21T01:51:03;14.00;99.90
22895;DHT22;11614;52.494;6.976;2022-08-21T01:53:29;13.70;99.90
22895;DHT22;11614;52.494;6.976;2022-08-21T01:58:21;13.90;99.90
22895;DHT22;11614;52.494;6.976;2022-08-21T02:05:40;14.00;99.90
22895;DHT22;11614;52.494;6.976;2022-08-21T02:08:06;13.90;99.90
22895;DHT22;11614;52.494;6.976;2022-08-21T02:10:33;13.60;99.90
22895;DHT22;11614;52.494;6.976;2022-08-21T02:13:00;13.80;99.90
22895;DHT22;11614;52.494;6.976;2022-08-21T02:15:26;13.80;99.90
22895;DHT22;11614;52.494;6.976;2022-08-21T02:17:54;13.90;99.90
22895;DHT22;11614;52.494;6.976;2022-08-21T02:22:49;14.00;99.90
22895;DHT22;11614;52.494;6.976;2022-08-21T02:25:15;13.90;99.90
22895;DHT22;11614;52.494;6.976;2022-08-21T02:27:42;13.70;99.90
22895;DHT22;11614;52.494;6.976;2022-08-21T02:30:13;13.70;99.90
22895;DHT22;11614;52.494;6.976;2022-08-21T02:32:39;13.70;99.90
22895;DHT22;11614;52.494;6.976;2022-08-21T02:35:06;13.60;99.90
22895;DHT22;11614;52.494;6.976;2022-08-21T02:37:32;13.60;99.90
22895;DHT22;11614;52.494;6.976;2022-08-21T02:40:00;13.60;99.90
22895;DHT22;11614;52.494;6.976;2022-08-21T02:42:26;13.60;99.90
22895;DHT22;11614;52.494;6.976;2022-08-21T02:44:52;13.70;99.90
22895;DHT22;11614;52.494;6.976;2022-08-21T02:47:17;13.70;99.90
22895;DHT22;11614;52.494;6.976;2022-08-21T02:52:10;13.50;99.90
22895;DHT22;11614;52.494;6.976;2022-08-21T02:59:29;13.30;99.90
22895;DHT22;11614;52.494;6.976;2022-08-21T03:01:54;13.20;99.90
22895;DHT22;11614;52.494;6.976;2022-08-21T03:04:20;13.50;99.90
22895;DHT22;11614;52.494;6.976;2022-08-21T03:06:46;13.50;99.90
22895;DHT22;11614;52.494;6.976;2022-08-21T03:09:11;13.40;99.90
22895;DHT22;11614;52.494;6.976;2022-08-21T03:11:37;13.50;99.90
22895;DHT22;11614;52.494;6.976;2022-08-21T03:16:30;13.40;99.90
22895;DHT22;11614;52.494;6.976;2022-08-21T03:26:14;13.40;99.90
22895;DHT22;11614;52.494;6.976;2022-08-21T03:28:39;13.40;99.90
22895;DHT22;11614;52.494;6.976;2022-08-21T03:31:05;13.20;99.90
22895;DHT22;11614;52.494;6.976;2022-08-21T03:33:31;13.40;99.90
22895;DHT22;11614;52.494;6.976;2022-08-21T03:36:03;13.30;99.90
22895;DHT22;11614;52.494;6.976;2022-08-21T03:38:31;13.30;99.90
22895;DHT22;11614;52.494;6.976;2022-08-21T03:40:58;13.50;99.90
22895;DHT22;11614;52.494;6.976;2022-08-21T03:43:24;13.60;99.90
22895;DHT22;11614;52.494;6.976;2022-08-21T05:11:43;13.90;99.90
22895;DHT22;11614;52.494;6.976;2022-08-21T05:14:10;14.00;99.90
22895;DHT22;11614;52.494;6.976;2022-08-21T05:16:36;14.20;99.90
22895;DHT22;11614;52.494;6.976;2022-08-21T05:19:04;14.20;99.90
22895;DHT22;11614;52.494;6.976;2022-08-21T05:21:29;14.60;99.90
22895;DHT22;11614;52.494;6.976;2022-08-21T05:23:55;15.00;99.90
22895;DHT22;11614;52.494;6.976;2022-08-21T05:26:20;15.40;99.90
22895;DHT22;11614;52.494;6.976;2022-08-21T20:08:45;20.60;99.90
22895;DHT22;11614;52.494;6.976;2022-08-21T20:11:13;20.50;99.90
22895;DHT22;11614;52.494;6.976;2022-08-21T20:13:41;20.50;99.90
22895;DHT22;11614;52.494;6.976;2022-08-21T20:16:09;20.50;99.90
22895;DHT22;11614;52.494;6.976;2022-08-21T20:28:21;20.40;99.90
22895;DHT22;11614;52.494;6.976;2022-08-21T20:40:33;20.20;99.90
22895;DHT22;11614;52.494;6.976;2022-08-21T20:45:28;20.10;99.90
22895;DHT22;11614;52.494;6.976;2022-08-21T20:47:58;20.10;99.90
22895;DHT22;11614;52.494;6.976;2022-08-21T20:50:26;20.10;99.90
22895;DHT22;11614;52.494;6.976;2022-08-21T20:52:56;20.10;99.90
22895;DHT22;11614;52.494;6.976;2022-08-21T20:55:43;20.10;99.90
22895;DHT22;11614;52.494;6.976;2022-08-21T20:58:18;20.00;99.90
22895;DHT22;11614;52.494;6.976;2022-08-21T21:00:46;20.00;99.90
22895;DHT22;11614;52.494;6.976;2022-08-21T21:03:30;19.90;99.90
22895;DHT22;11614;52.494;6.976;2022-08-21T21:06:07;19.90;99.90
22895;DHT22;11614;52.494;6.976;2022-08-21T21:09:04;19.80;99.90
22895;DHT22;11614;52.494;6.976;2022-08-21T21:14:07;19.80;99.90
22895;DHT22;11614;52.494;6.976;2022-08-21T21:16:47;19.80;99.90
22895;DHT22;11614;52.494;6.976;2022-08-21T21:22:13;19.60;99.90
22895;DHT22;11614;52.494;6.976;2022-08-21T21:25:05;19.60;99.90
22895;DHT22;11614;52.494;6.976;2022-08-21T21:27:36;19.60;99.90
22895;DHT22;11614;52.494;6.976;2022-08-21T21:32:42;19.50;99.90
22895;DHT22;11614;52.494;6.976;2022-08-21T21:35:12;19.50;99.90
22895;DHT22;11614;52.494;6.976;2022-08-21T21:37:46;19.40;99.90
22895;DHT22;11614;52.494;6.976;2022-08-21T21:43:22;19.40;99.90
22895;DHT22;11614;52.494;6.976;2022-08-21T21:51:46;19.40;99.90
22895;DHT22;11614;52.494;6.976;2022-08-21T22:02:51;19.30;99.90
22895;DHT22;11614;52.494;6.976;2022-08-21T22:08:06;19.20;99.90
22895;DHT22;11614;52.494;6.976;2022-08-21T22:10:42;19.20;99.90
22895;DHT22;11614;52.494;6.976;2022-08-21T22:13:30;19.10;99.90
22895;DHT22;11614;52.494;6.976;2022-08-21T22:18:27;19.00;99.90
22895;DHT22;11614;52.494;6.976;2022-08-21T22:21:10;18.90;99.90
22895;DHT22;11614;52.494;6.976;2022-08-21T22:23:43;19.00;99.90
22895;DHT22;11614;52.494;6.976;2022-08-21T22:26:13;18.90;99.90
22895;DHT22;11614;52.494;6.976;2022-08-21T22:31:24;18.80;99.90
22895;DHT22;11614;52.494;6.976;2022-08-21T22:34:13;18.70;99.90
22895;DHT22;11614;52.494;6.976;2022-08-21T22:36:56;18.60;99.90
22895;DHT22;11614;52.494;6.976;2022-08-21T22:39:52;18.50;99.90
22895;DHT22;11614;52.494;6.976;2022-08-21T22:42:22;18.50;99.90
22895;DHT22;11614;52.494;6.976;2022-08-21T22:44:52;18.40;99.90
22895;DHT22;11614;52.494;6.976;2022-08-21T22:49:58;18.30;99.90
22895;DHT22;11614;52.494;6.976;2022-08-21T22:54:53;18.10;99.90
22895;DHT22;11614;52.494;6.976;2022-08-21T22:57:31;18.20;99.90
22895;DHT22;11614;52.494;6.976;2022-08-21T23:05:39;18.10;99.90
22895;DHT22;11614;52.494;6.976;2022-08-21T23:10:58;18.00;99.90
22895;DHT22;11614;52.494;6.976;2022-08-21T23:13:28;18.10;99.90
22895;DHT22;11614;52.494;6.976;2022-08-21T23:19:13;18.00;99.90
22895;DHT22;11614;52.494;6.976;2022-08-21T23:22:03;18.00;99.90
22895;DHT22;11614;52.494;6.976;2022-08-21T23:32:27;18.00;99.90
22895;DHT22;11614;52.494;6.976;2022-08-21T23:40:46;18.00;99.90
